createdAt,value
2023-03-16T00:01:23.561Z,1.45
2023-03-16T00:06:28.422Z,1.62
2023-03-16T00:11:33.254Z,1.77
2023-03-16T00:16:38.121Z,1.97
2023-03-16T00:21:42.858Z,2.13
2023-03-16T00:26:48.659Z,2.26
2023-03-16T00:31:53.476Z,2.42
2023-03-16T00:36:58.219Z,2.53
2023-03-16T00:42:05.737Z,2.68
2023-03-16T00:47:15.394Z,2.86
2023-03-16T00:52:20.606Z,3.03
2023-03-16T00:57:29.923Z,3.15
2023-03-16T01:02:38.272Z,3.26
2023-03-16T01:07:44.258Z,3.37
2023-03-16T01:12:50.002Z,3.51
2023-03-16T01:17:55.684Z,3.72
2023-03-16T01:23:00.523Z,3.97
2023-03-16T01:28:05.354Z,4.30
2023-03-16T01:33:10.414Z,4.57
2023-03-16T01:38:16.498Z,4.81
2023-03-16T01:43:27.146Z,5.17
2023-03-16T01:48:44.259Z,5.50
2023-03-16T01:53:54.339Z,5.78
2023-03-16T01:59:02.211Z,5.98
2023-03-16T02:04:16.072Z,6.17
2023-03-16T02:09:22.018Z,6.36
2023-03-16T02:14:28.008Z,6.62
2023-03-16T02:20:02.019Z,6.91
2023-03-16T02:25:07.340Z,7.20
2023-03-16T02:30:15.252Z,7.46
2023-03-16T02:35:35.820Z,7.72
2023-03-16T02:40:41.069Z,7.89
2023-03-16T02:46:09.263Z,8.09
2023-03-16T02:51:14.859Z,8.21
2023-03-16T02:56:22.103Z,8.39
2023-03-16T03:01:27.893Z,8.53
2023-03-16T03:06:33.570Z,8.79
2023-03-16T03:11:40.712Z,9.04
2023-03-16T03:16:47.883Z,9.18
2023-03-16T03:21:53.780Z,9.29
2023-03-16T03:26:59.988Z,9.31
2023-03-16T03:32:06.245Z,9.48
2023-03-16T03:37:11.149Z,9.64
2023-03-16T03:42:19.590Z,9.77
2023-03-16T03:47:24.428Z,9.91
2023-03-16T03:52:30.409Z,9.99
2023-03-16T03:57:34.690Z,10.06
2023-03-16T04:02:42.114Z,10.21
2023-03-16T04:07:58.849Z,10.44
2023-03-16T04:13:03.958Z,10.58
2023-03-16T04:18:11.269Z,10.70
2023-03-16T04:23:17.957Z,10.89
2023-03-16T04:28:27.623Z,10.99
2023-03-16T04:33:33.579Z,11.05
2023-03-16T04:38:38.514Z,11.11
2023-03-16T04:43:44.473Z,11.34
2023-03-16T04:48:59.525Z,11.49
2023-03-16T04:54:06.415Z,11.59
2023-03-16T04:59:14.297Z,11.72
2023-03-16T05:04:25.910Z,11.79
2023-03-16T05:09:30.727Z,11.80
2023-03-16T05:14:38.088Z,11.87
2023-03-16T05:20:03.336Z,11.98
2023-03-16T05:25:10.820Z,12.03
2023-03-16T05:30:18.246Z,12.15
2023-03-16T05:35:25.034Z,12.28
2023-03-16T05:40:34.294Z,12.43
2023-03-16T05:45:49.495Z,12.46
2023-03-16T05:50:56.929Z,12.50
2023-03-16T05:56:08.202Z,12.53
2023-03-16T06:01:18.730Z,12.62
2023-03-16T06:06:24.815Z,12.73
2023-03-16T06:11:39.751Z,12.78
2023-03-16T06:16:46.148Z,12.86
2023-03-16T06:21:52.589Z,12.99
2023-03-16T06:26:58.350Z,13.06
2023-03-16T06:32:10.545Z,13.05
2023-03-16T06:37:16.828Z,13.14
2023-03-16T06:42:22.568Z,13.17
2023-03-16T06:47:28.503Z,13.14
2023-03-16T06:52:33.298Z,13.05
2023-03-16T06:57:38.193Z,13.08
2023-03-16T07:02:44.959Z,13.12
2023-03-16T07:07:51.814Z,13.17
2023-03-16T07:12:58.396Z,13.21
2023-03-16T07:18:03.977Z,13.27
2023-03-16T07:23:09.648Z,13.33
2023-03-16T07:28:14.740Z,13.19
2023-03-16T07:33:22.167Z,13.27
2023-03-16T07:38:27.557Z,13.31
2023-03-16T07:43:34.210Z,13.31
2023-03-16T07:48:39.156Z,13.19
2023-03-16T07:53:44.363Z,13.10
2023-03-16T07:58:55.358Z,13.01
2023-03-16T08:04:01.574Z,13.04
2023-03-16T08:09:07.360Z,13.02
2023-03-16T08:14:15.692Z,12.97
2023-03-16T08:19:40.151Z,12.99
2023-03-16T08:24:47.143Z,12.99
2023-03-16T08:29:57.195Z,12.90
2023-03-16T08:35:03.841Z,12.75
2023-03-16T08:40:12.959Z,12.67
2023-03-16T08:45:21.199Z,12.54
2023-03-16T08:50:27.454Z,12.38
2023-03-16T08:55:32.383Z,12.27
2023-03-16T09:00:37.715Z,12.25
2023-03-16T09:05:44.560Z,12.13
2023-03-16T09:10:50.115Z,12.03
2023-03-16T09:15:55.457Z,11.93
2023-03-16T09:21:04.981Z,11.78
2023-03-16T09:26:11.717Z,11.68
2023-03-16T09:31:21.463Z,11.58
2023-03-16T09:36:26.847Z,11.46
2023-03-16T09:41:46.415Z,11.36
2023-03-16T09:46:53.452Z,11.17
2023-03-16T09:52:15.036Z,11.04
2023-03-16T09:57:36.823Z,10.90
2023-03-16T10:03:02.710Z,10.79
2023-03-16T10:08:24.369Z,10.66
2023-03-16T10:13:52.429Z,10.52
2023-03-16T10:19:10.292Z,10.36
2023-03-16T10:24:28.705Z,10.21
2023-03-16T10:29:38.209Z,10.11
2023-03-16T10:34:44.735Z,10.08
2023-03-16T10:39:51.226Z,9.95
2023-03-16T10:45:03.242Z,9.80
2023-03-16T10:50:18.095Z,9.66
2023-03-16T10:55:27.645Z,9.54
2023-03-16T11:00:38.407Z,9.41
2023-03-16T11:05:43.107Z,9.24
2023-03-16T11:10:56.377Z,9.08
2023-03-16T11:16:28.782Z,8.95
2023-03-16T11:21:56.450Z,8.81
2023-03-16T11:27:09.907Z,8.71
2023-03-16T11:32:30.957Z,8.58
2023-03-16T11:38:12.920Z,8.46
2023-03-16T11:43:42.879Z,8.35
2023-03-16T11:48:54.991Z,8.24
2023-03-16T11:54:15.901Z,8.14
2023-03-16T12:00:01.574Z,8.07
2023-03-16T12:05:24.389Z,7.94
2023-03-16T12:10:54.012Z,7.78
2023-03-16T12:16:06.957Z,7.64
2023-03-16T12:21:43.633Z,7.49
2023-03-16T12:26:50.845Z,7.37
2023-03-16T12:32:09.629Z,7.33
2023-03-16T12:37:24.839Z,7.33
2023-03-16T12:43:02.646Z,7.27
2023-03-16T12:48:32.051Z,7.23
2023-03-16T12:53:47.992Z,7.17
2023-03-16T12:58:53.114Z,7.17
2023-03-16T13:04:20.589Z,7.16
2023-03-16T13:09:32.649Z,7.15
2023-03-16T13:14:41.857Z,7.13
2023-03-16T13:20:08.997Z,7.08
2023-03-16T13:25:30.371Z,7.00
2023-03-16T13:30:37.829Z,6.96
2023-03-16T13:35:43.305Z,6.90
2023-03-16T13:40:55.240Z,6.71
2023-03-16T13:46:00.519Z,6.42
2023-03-16T13:51:05.486Z,6.26
2023-03-16T13:56:14.867Z,6.26
2023-03-16T14:01:34.585Z,6.29
2023-03-16T14:06:39.824Z,6.28
2023-03-16T14:11:49.694Z,6.25
2023-03-16T14:16:55.958Z,6.20
2023-03-16T14:22:05.440Z,6.17
2023-03-16T14:27:27.907Z,6.06
2023-03-16T14:32:34.650Z,5.96
2023-03-16T14:37:39.829Z,5.88
2023-03-16T14:42:45.436Z,5.70
2023-03-16T14:47:52.509Z,5.50
2023-03-16T14:52:58.711Z,5.28
2023-03-16T14:58:03.665Z,5.28
2023-03-16T15:03:13.050Z,5.31
2023-03-16T15:08:32.560Z,5.36
2023-03-16T15:13:54.221Z,5.42
2023-03-16T15:18:58.966Z,5.36
2023-03-16T15:24:03.920Z,5.23
2023-03-16T15:29:11.041Z,5.14
2023-03-16T15:34:15.848Z,5.07
2023-03-16T15:39:27.458Z,4.98
2023-03-16T15:44:32.326Z,4.85
2023-03-16T15:49:46.610Z,4.84
2023-03-16T15:54:51.708Z,4.72
2023-03-16T15:59:56.320Z,4.72
2023-03-16T16:05:02.855Z,4.69
2023-03-16T16:10:09.788Z,4.66
2023-03-16T16:15:38.158Z,4.63
2023-03-16T16:20:42.959Z,4.60
2023-03-16T16:25:49.299Z,4.55
2023-03-16T16:30:54.725Z,4.51
2023-03-16T16:36:01.841Z,4.47
2023-03-16T16:41:11.622Z,4.44
2023-03-16T16:46:25.128Z,4.31
2023-03-16T16:51:32.705Z,4.26
2023-03-16T16:56:39.798Z,4.16
2023-03-16T17:01:44.976Z,4.09
2023-03-16T17:06:49.743Z,4.08
2023-03-16T17:11:57.245Z,4.05
2023-03-16T17:17:06.132Z,4.01
2023-03-16T17:22:23.933Z,4.01
2023-03-16T17:27:32.537Z,4.00
2023-03-16T17:32:37.558Z,3.99
2023-03-16T17:37:43.865Z,3.96
2023-03-16T17:42:50.790Z,3.93
2023-03-16T17:47:57.483Z,3.84
2023-03-16T17:53:02.260Z,3.72
2023-03-16T17:58:07.853Z,3.69
2023-03-16T18:03:18.568Z,3.65
2023-03-16T18:08:31.114Z,3.68
2023-03-16T18:13:41.309Z,3.65
2023-03-16T18:18:46.071Z,3.62
2023-03-16T18:23:52.497Z,3.60
2023-03-16T18:28:57.637Z,3.60
2023-03-16T18:34:06.530Z,3.59
2023-03-16T18:39:19.105Z,3.57
2023-03-16T18:44:27.776Z,3.62
2023-03-16T18:49:36.246Z,3.59
2023-03-16T18:54:40.926Z,3.48
2023-03-16T18:59:45.850Z,3.37
2023-03-16T19:04:52.112Z,3.28
2023-03-16T19:09:57.229Z,3.29
2023-03-16T19:15:01.898Z,3.26
2023-03-16T19:20:06.604Z,3.22
2023-03-16T19:25:18.537Z,3.20
2023-03-16T19:30:30.519Z,3.16
2023-03-16T19:35:50.809Z,3.16
2023-03-16T19:41:02.215Z,3.16
2023-03-16T19:46:07.181Z,3.08
2023-03-16T19:51:19.233Z,2.96
2023-03-16T19:56:26.768Z,2.83
2023-03-16T20:01:34.761Z,2.73
2023-03-16T20:06:39.420Z,2.63
2023-03-16T20:11:44.139Z,2.59
2023-03-16T20:16:49.453Z,2.66
2023-03-16T20:21:53.457Z,2.66
2023-03-16T20:26:58.445Z,2.61
2023-03-16T20:32:04.838Z,2.59
2023-03-16T20:37:31.921Z,2.53
2023-03-16T20:42:38.103Z,2.57
2023-03-16T20:47:43.504Z,2.59
2023-03-16T20:52:49.127Z,2.54
2023-03-16T20:57:55.279Z,2.43
2023-03-16T21:03:00.908Z,2.33
2023-03-16T21:08:06.542Z,2.22
2023-03-16T21:13:36.399Z,2.21
2023-03-16T21:18:41.358Z,2.22
2023-03-16T21:23:48.290Z,2.27
2023-03-16T21:29:03.570Z,2.32
2023-03-16T21:34:19.952Z,2.39
2023-03-16T21:39:26.150Z,2.41
2023-03-16T21:44:31.226Z,2.39
2023-03-16T21:49:36.359Z,2.45
2023-03-16T21:54:41.634Z,2.52
2023-03-16T21:59:46.947Z,2.47
2023-03-16T22:04:54.690Z,2.40
2023-03-16T22:10:00.568Z,2.31
2023-03-16T22:15:06.518Z,2.28
2023-03-16T22:20:27.575Z,2.32
2023-03-16T22:25:32.760Z,2.37
2023-03-16T22:30:37.969Z,2.41
2023-03-16T22:35:43.323Z,2.42
2023-03-16T22:40:48.619Z,2.45
2023-03-16T22:45:57.578Z,2.49
2023-03-16T22:51:06.141Z,2.53
2023-03-16T22:56:13.289Z,2.58
2023-03-16T23:01:20.152Z,2.61
2023-03-16T23:06:28.374Z,2.62
2023-03-16T23:11:38.372Z,2.73
2023-03-16T23:16:45.755Z,2.76
2023-03-16T23:21:51.336Z,2.79
2023-03-16T23:26:58.295Z,2.90
2023-03-16T23:32:05.495Z,2.94
2023-03-16T23:37:11.399Z,2.96
2023-03-16T23:42:17.516Z,3.01
2023-03-16T23:47:22.688Z,3.12
2023-03-16T23:52:28.978Z,3.21
2023-03-16T23:57:35.541Z,3.29
